WUK2JE LEBL-EGGW
Flight info
| Callsign | WUK2JE |
|---|---|
| Flight time | 1h 42m |
| Altitude | 32000 |
| Route | NATPI DCT EVNAM/N0433F340 DCT TUPAR UN861 DIKRO UM185 TELTU |
| Aircraft | A21N/M-SDE1E2E3FGIJ1J4RWXY/LB1 |
Departure
| Time | 2026-05-07 14:55 |
|---|---|
| Airport | Josep Tarradellas Barcelona-El Prat Airport (LEBL) |
Arrival
| Time | 2026-05-07 16:37 |
|---|---|
| Airport | London Luton Airport (EGGW) |
| Time | Latitude | Longitude | Altitude | Speed | Heading |
|---|---|---|---|---|---|
| 2026-05-07 13:51 | 41.30063 | 2.07512 | 26 ft | 0 kts | 335° |
| 2026-05-07 14:35 | 41.30060 | 2.07514 | 26 ft | 3 kts | 335° |
| 2026-05-07 14:35 | 41.30037 | 2.07527 | 27 ft | 2 kts | 336° |
| 2026-05-07 14:35 | 41.30017 | 2.07540 | 25 ft | 4 kts | 325° |
| 2026-05-07 14:35 | 41.30001 | 2.07563 | 24 ft | 4 kts | 278° |
| 2026-05-07 14:36 | 41.30007 | 2.07592 | 24 ft | 4 kts | 245° |
| 2026-05-07 14:36 | 41.30012 | 2.07607 | 24 ft | 0 kts | 245° |
| 2026-05-07 14:39 | 41.30008 | 2.07595 | 24 ft | 3 kts | 246° |
| 2026-05-07 14:39 | 41.29997 | 2.07563 | 24 ft | 5 kts | 238° |
| 2026-05-07 14:39 | 41.29967 | 2.07528 | 23 ft | 7 kts | 197° |
| 2026-05-07 14:39 | 41.29916 | 2.07544 | 20 ft | 9 kts | 155° |
| 2026-05-07 14:40 | 41.29855 | 2.07540 | 21 ft | 10 kts | 227° |
| 2026-05-07 14:40 | 41.29822 | 2.07458 | 23 ft | 10 kts | 245° |
| 2026-05-07 14:40 | 41.29791 | 2.07368 | 21 ft | 11 kts | 246° |
| 2026-05-07 14:40 | 41.29759 | 2.07270 | 21 ft | 12 kts | 245° |
| 2026-05-07 14:41 | 41.29724 | 2.07170 | 22 ft | 13 kts | 245° |
| 2026-05-07 14:41 | 41.29684 | 2.07054 | 21 ft | 15 kts | 245° |
| 2026-05-07 14:41 | 41.29641 | 2.06929 | 22 ft | 15 kts | 245° |
| 2026-05-07 14:41 | 41.29595 | 2.06800 | 21 ft | 16 kts | 245° |
| 2026-05-07 14:42 | 41.29565 | 2.06710 | 23 ft | 16 kts | 245° |
| 2026-05-07 14:42 | 41.29503 | 2.06528 | 21 ft | 17 kts | 244° |
| 2026-05-07 14:42 | 41.29454 | 2.06386 | 21 ft | 17 kts | 246° |
| 2026-05-07 14:42 | 41.29420 | 2.06288 | 21 ft | 17 kts | 245° |
| 2026-05-07 14:43 | 41.29365 | 2.06147 | 22 ft | 11 kts | 217° |
| 2026-05-07 14:43 | 41.29289 | 2.06150 | 22 ft | 12 kts | 155° |
| 2026-05-07 14:43 | 41.29215 | 2.06198 | 22 ft | 12 kts | 155° |
| 2026-05-07 14:43 | 41.29135 | 2.06245 | 21 ft | 13 kts | 156° |
| 2026-05-07 14:44 | 41.29080 | 2.06280 | 21 ft | 13 kts | 144° |
| 2026-05-07 14:44 | 41.29034 | 2.06387 | 21 ft | 14 kts | 110° |
| 2026-05-07 14:44 | 41.29005 | 2.06512 | 22 ft | 14 kts | 92° |
| 2026-05-07 14:44 | 41.29035 | 2.06641 | 22 ft | 15 kts | 66° |
| 2026-05-07 14:45 | 41.29080 | 2.06768 | 22 ft | 15 kts | 66° |
| 2026-05-07 14:45 | 41.29124 | 2.06900 | 22 ft | 16 kts | 66° |
| 2026-05-07 14:45 | 41.29171 | 2.07035 | 23 ft | 16 kts | 65° |
| 2026-05-07 14:45 | 41.29217 | 2.07174 | 22 ft | 17 kts | 66° |
| 2026-05-07 14:46 | 41.29267 | 2.07318 | 24 ft | 17 kts | 66° |
| 2026-05-07 14:46 | 41.29317 | 2.07464 | 22 ft | 18 kts | 65° |
| 2026-05-07 14:46 | 41.29356 | 2.07596 | 21 ft | 14 kts | 66° |
| 2026-05-07 14:46 | 41.29395 | 2.07715 | 22 ft | 14 kts | 66° |
| 2026-05-07 14:47 | 41.29437 | 2.07836 | 22 ft | 15 kts | 64° |
| 2026-05-07 14:47 | 41.29480 | 2.07963 | 23 ft | 15 kts | 65° |
| 2026-05-07 14:47 | 41.29524 | 2.08094 | 23 ft | 16 kts | 65° |
| 2026-05-07 14:47 | 41.29560 | 2.08219 | 21 ft | 11 kts | 90° |
| 2026-05-07 14:48 | 41.29510 | 2.08292 | 23 ft | 12 kts | 154° |
| 2026-05-07 14:48 | 41.29432 | 2.08339 | 26 ft | 13 kts | 156° |
| 2026-05-07 14:48 | 41.29349 | 2.08388 | 25 ft | 13 kts | 155° |
| 2026-05-07 14:48 | 41.29262 | 2.08440 | 26 ft | 13 kts | 155° |
| 2026-05-07 14:49 | 41.29174 | 2.08434 | 25 ft | 14 kts | 198° |
| 2026-05-07 14:49 | 41.29082 | 2.08392 | 24 ft | 14 kts | 199° |
| 2026-05-07 14:49 | 41.28985 | 2.08346 | 23 ft | 15 kts | 199° |
| 2026-05-07 14:49 | 41.28881 | 2.08300 | 23 ft | 16 kts | 198° |
| 2026-05-07 14:50 | 41.28773 | 2.08252 | 21 ft | 17 kts | 199° |
| 2026-05-07 14:50 | 41.28687 | 2.08199 | 22 ft | 11 kts | 225° |
| 2026-05-07 14:50 | 41.28649 | 2.08105 | 22 ft | 12 kts | 246° |
| 2026-05-07 14:50 | 41.28613 | 2.07998 | 24 ft | 13 kts | 245° |
| 2026-05-07 14:51 | 41.28572 | 2.07881 | 22 ft | 14 kts | 245° |
| 2026-05-07 14:51 | 41.28529 | 2.07755 | 22 ft | 16 kts | 245° |
| 2026-05-07 14:51 | 41.28492 | 2.07647 | 22 ft | 9 kts | 245° |
| 2026-05-07 14:51 | 41.28464 | 2.07566 | 22 ft | 10 kts | 245° |
| 2026-05-07 14:52 | 41.28432 | 2.07475 | 23 ft | 12 kts | 245° |
| 2026-05-07 14:52 | 41.28403 | 2.07392 | 22 ft | 3 kts | 243° |
| 2026-05-07 14:52 | 41.28387 | 2.07368 | 22 ft | 4 kts | 222° |
| 2026-05-07 14:52 | 41.28359 | 2.07344 | 22 ft | 5 kts | 199° |
| 2026-05-07 14:53 | 41.28320 | 2.07343 | 21 ft | 6 kts | 162° |
| 2026-05-07 14:53 | 41.28275 | 2.07369 | 21 ft | 8 kts | 156° |
| 2026-05-07 14:53 | 41.28232 | 2.07410 | 24 ft | 8 kts | 106° |
| 2026-05-07 14:53 | 41.28239 | 2.07459 | 24 ft | 0 kts | 68° |
| 2026-05-07 14:54 | 41.28267 | 2.07542 | 25 ft | 38 kts | 65° |
| 2026-05-07 14:54 | 41.28482 | 2.08170 | 26 ft | 110 kts | 65° |
| 2026-05-07 14:54 | 41.28894 | 2.09378 | 39 ft | 171 kts | 66° |
| 2026-05-07 14:54 | 41.29394 | 2.10839 | 592 ft | 179 kts | 68° |
| 2026-05-07 14:55 | 41.29656 | 2.12504 | 1114 ft | 192 kts | 93° |
| 2026-05-07 14:55 | 41.29446 | 2.14323 | 1672 ft | 204 kts | 99° |
| 2026-05-07 14:55 | 41.29208 | 2.16210 | 2296 ft | 211 kts | 99° |
| 2026-05-07 14:55 | 41.28987 | 2.18089 | 2950 ft | 212 kts | 99° |
| 2026-05-07 14:56 | 41.28764 | 2.20040 | 3624 ft | 215 kts | 100° |
| 2026-05-07 14:56 | 41.28539 | 2.22024 | 4262 ft | 218 kts | 99° |
| 2026-05-07 14:56 | 41.28336 | 2.23838 | 4847 ft | 221 kts | 99° |
| 2026-05-07 14:56 | 41.28111 | 2.25861 | 5449 ft | 224 kts | 99° |
| 2026-05-07 14:57 | 41.27865 | 2.27971 | 5869 ft | 240 kts | 103° |
| 2026-05-07 14:57 | 41.27120 | 2.30015 | 6125 ft | 259 kts | 133° |
| 2026-05-07 14:57 | 41.25571 | 2.31320 | 6531 ft | 271 kts | 165° |
| 2026-05-07 14:57 | 41.23724 | 2.31352 | 7158 ft | 275 kts | 196° |
| 2026-05-07 14:58 | 41.22081 | 2.30095 | 7805 ft | 278 kts | 226° |
| 2026-05-07 14:58 | 41.21064 | 2.27901 | 8463 ft | 281 kts | 249° |
| 2026-05-07 14:58 | 41.20448 | 2.25428 | 9159 ft | 284 kts | 252° |
| 2026-05-07 14:58 | 41.19842 | 2.22936 | 9835 ft | 286 kts | 251° |
| 2026-05-07 14:59 | 41.19211 | 2.20384 | 10321 ft | 297 kts | 254° |
| 2026-05-07 14:59 | 41.18911 | 2.17601 | 10588 ft | 315 kts | 270° |
| 2026-05-07 14:59 | 41.19280 | 2.14675 | 10908 ft | 329 kts | 288° |
| 2026-05-07 14:59 | 41.20384 | 2.11986 | 11483 ft | 336 kts | 307° |
| 2026-05-07 15:00 | 41.22087 | 2.09852 | 12105 ft | 341 kts | 322° |
| 2026-05-07 15:00 | 41.24162 | 2.08284 | 12725 ft | 345 kts | 334° |
| 2026-05-07 15:00 | 41.26383 | 2.07032 | 13340 ft | 348 kts | 336° |
| 2026-05-07 15:00 | 41.28635 | 2.05810 | 13944 ft | 351 kts | 336° |
| 2026-05-07 15:01 | 41.30904 | 2.04570 | 14531 ft | 355 kts | 336° |
| 2026-05-07 15:01 | 41.33193 | 2.03303 | 15109 ft | 358 kts | 335° |
| 2026-05-07 15:01 | 41.35504 | 2.02022 | 15686 ft | 361 kts | 335° |
| 2026-05-07 15:01 | 41.37827 | 2.00732 | 16236 ft | 364 kts | 335° |
| 2026-05-07 15:02 | 41.40162 | 1.99424 | 16788 ft | 366 kts | 335° |
| 2026-05-07 15:02 | 41.42522 | 1.98095 | 17316 ft | 369 kts | 335° |
| 2026-05-07 15:02 | 41.44893 | 1.96760 | 17827 ft | 372 kts | 335° |
| 2026-05-07 15:02 | 41.47292 | 1.95406 | 18335 ft | 375 kts | 335° |
| 2026-05-07 15:03 | 41.49709 | 1.94047 | 18845 ft | 378 kts | 335° |
| 2026-05-07 15:03 | 41.52146 | 1.92678 | 19311 ft | 381 kts | 335° |
| 2026-05-07 15:03 | 41.54602 | 1.91303 | 19784 ft | 384 kts | 334° |
| 2026-05-07 15:03 | 41.57074 | 1.89913 | 20246 ft | 387 kts | 334° |
| 2026-05-07 15:04 | 41.59560 | 1.88511 | 20684 ft | 390 kts | 334° |
| 2026-05-07 15:04 | 41.62082 | 1.87107 | 21133 ft | 394 kts | 336° |
| 2026-05-07 15:04 | 41.64661 | 1.85839 | 21566 ft | 397 kts | 337° |
| 2026-05-07 15:04 | 41.67270 | 1.84596 | 21986 ft | 400 kts | 337° |
| 2026-05-07 15:05 | 41.69868 | 1.83359 | 22368 ft | 402 kts | 336° |
| 2026-05-07 15:05 | 41.72512 | 1.82083 | 22749 ft | 405 kts | 336° |
| 2026-05-07 15:05 | 41.75170 | 1.80794 | 23145 ft | 408 kts | 336° |
| 2026-05-07 15:05 | 41.77839 | 1.79492 | 23521 ft | 410 kts | 336° |
| 2026-05-07 15:06 | 41.80534 | 1.78180 | 23891 ft | 413 kts | 336° |
| 2026-05-07 15:06 | 41.83248 | 1.76861 | 24261 ft | 416 kts | 336° |
| 2026-05-07 15:06 | 41.85974 | 1.75535 | 24627 ft | 418 kts | 336° |
| 2026-05-07 15:06 | 41.88702 | 1.74196 | 24977 ft | 420 kts | 335° |
| 2026-05-07 15:07 | 41.91457 | 1.72833 | 25310 ft | 422 kts | 335° |
| 2026-05-07 15:07 | 41.94220 | 1.71465 | 25650 ft | 424 kts | 335° |
| 2026-05-07 15:07 | 41.97002 | 1.70088 | 25972 ft | 426 kts | 335° |
| 2026-05-07 15:07 | 41.99794 | 1.68721 | 26277 ft | 429 kts | 335° |
| 2026-05-07 15:08 | 42.02612 | 1.67366 | 26588 ft | 431 kts | 335° |
| 2026-05-07 15:08 | 42.05445 | 1.65998 | 26902 ft | 433 kts | 335° |
| 2026-05-07 15:08 | 42.08313 | 1.64597 | 27205 ft | 434 kts | 335° |
| 2026-05-07 15:08 | 42.11126 | 1.63218 | 27466 ft | 436 kts | 335° |
| 2026-05-07 15:09 | 42.14016 | 1.61795 | 27758 ft | 438 kts | 334° |
| 2026-05-07 15:09 | 42.16851 | 1.60392 | 28013 ft | 440 kts | 334° |
| 2026-05-07 15:09 | 42.19739 | 1.58972 | 28192 ft | 445 kts | 333° |
| 2026-05-07 15:09 | 42.22696 | 1.57514 | 28385 ft | 449 kts | 333° |
| 2026-05-07 15:10 | 42.25643 | 1.56054 | 28650 ft | 451 kts | 333° |
| 2026-05-07 15:10 | 42.28587 | 1.54587 | 28896 ft | 453 kts | 332° |
| 2026-05-07 15:10 | 42.31500 | 1.53111 | 29126 ft | 454 kts | 332° |
| 2026-05-07 15:10 | 42.34471 | 1.51613 | 29353 ft | 457 kts | 332° |
| 2026-05-07 15:11 | 42.37465 | 1.50125 | 29578 ft | 459 kts | 333° |
| 2026-05-07 15:11 | 42.40512 | 1.48605 | 29805 ft | 461 kts | 332° |
| 2026-05-07 15:11 | 42.43528 | 1.47099 | 30050 ft | 463 kts | 332° |
| 2026-05-07 15:11 | 42.46510 | 1.45625 | 30262 ft | 464 kts | 333° |
| 2026-05-07 15:12 | 42.49548 | 1.44150 | 30441 ft | 465 kts | 333° |
| 2026-05-07 15:12 | 42.52605 | 1.42660 | 30594 ft | 468 kts | 333° |
| 2026-05-07 15:12 | 42.55665 | 1.41150 | 30809 ft | 468 kts | 333° |
| 2026-05-07 15:12 | 42.58718 | 1.39630 | 31043 ft | 469 kts | 333° |
| 2026-05-07 15:13 | 42.61783 | 1.38092 | 31251 ft | 469 kts | 333° |
| 2026-05-07 15:13 | 42.64848 | 1.36550 | 31528 ft | 469 kts | 333° |
| 2026-05-07 15:13 | 42.67901 | 1.35025 | 31795 ft | 468 kts | 333° |
| 2026-05-07 15:13 | 42.70957 | 1.33498 | 32008 ft | 469 kts | 333° |
| 2026-05-07 15:14 | 42.74011 | 1.31956 | 32269 ft | 468 kts | 333° |
| 2026-05-07 15:14 | 42.77071 | 1.30416 | 32505 ft | 468 kts | 333° |
| 2026-05-07 15:14 | 42.80119 | 1.28885 | 32690 ft | 467 kts | 333° |
| 2026-05-07 15:14 | 42.83160 | 1.27351 | 32906 ft | 466 kts | 333° |
| 2026-05-07 15:15 | 42.85840 | 1.25989 | 33062 ft | 466 kts | 333° |
| 2026-05-07 15:15 | 42.88882 | 1.24457 | 33235 ft | 466 kts | 334° |
| 2026-05-07 15:15 | 42.91928 | 1.22927 | 33435 ft | 465 kts | 334° |
| 2026-05-07 15:15 | 42.94952 | 1.21400 | 33632 ft | 464 kts | 334° |
| 2026-05-07 15:16 | 42.97979 | 1.19867 | 33790 ft | 463 kts | 334° |
| 2026-05-07 15:16 | 43.01000 | 1.18335 | 33924 ft | 463 kts | 334° |
| 2026-05-07 15:16 | 43.07047 | 1.15271 | 33968 ft | 463 kts | 334° |
| 2026-05-07 15:17 | 43.13076 | 1.12213 | 33950 ft | 462 kts | 334° |
| 2026-05-07 15:17 | 43.19096 | 1.09147 | 33945 ft | 461 kts | 334° |
| 2026-05-07 15:18 | 43.25097 | 1.06064 | 33944 ft | 460 kts | 334° |
| 2026-05-07 15:18 | 43.31103 | 1.02986 | 33952 ft | 460 kts | 334° |
| 2026-05-07 15:19 | 43.36959 | 0.99988 | 33956 ft | 460 kts | 334° |
| 2026-05-07 15:19 | 43.42938 | 0.96902 | 33962 ft | 459 kts | 334° |
| 2026-05-07 15:20 | 43.48928 | 0.93820 | 33959 ft | 459 kts | 334° |
| 2026-05-07 15:20 | 43.54868 | 0.90755 | 33961 ft | 459 kts | 334° |
| 2026-05-07 15:21 | 43.60848 | 0.87674 | 33958 ft | 458 kts | 335° |
| 2026-05-07 15:21 | 43.66817 | 0.84579 | 33959 ft | 458 kts | 334° |
| 2026-05-07 15:22 | 43.72777 | 0.81475 | 33955 ft | 457 kts | 334° |
| 2026-05-07 15:22 | 43.78733 | 0.78364 | 33962 ft | 457 kts | 335° |
| 2026-05-07 15:23 | 43.84688 | 0.75273 | 33955 ft | 457 kts | 335° |
| 2026-05-07 15:23 | 43.90633 | 0.72156 | 33957 ft | 457 kts | 335° |
| 2026-05-07 15:24 | 43.96581 | 0.69045 | 33956 ft | 457 kts | 335° |
| 2026-05-07 15:24 | 44.02518 | 0.65933 | 33962 ft | 456 kts | 335° |
| 2026-05-07 15:25 | 44.08417 | 0.62809 | 33952 ft | 452 kts | 335° |
| 2026-05-07 15:25 | 44.14302 | 0.59703 | 33960 ft | 452 kts | 335° |
| 2026-05-07 15:26 | 44.20173 | 0.56618 | 33954 ft | 451 kts | 335° |
| 2026-05-07 15:26 | 44.26051 | 0.53503 | 33958 ft | 451 kts | 335° |
| 2026-05-07 15:27 | 44.31920 | 0.50380 | 33955 ft | 451 kts | 335° |
| 2026-05-07 15:27 | 44.37786 | 0.47265 | 33961 ft | 451 kts | 335° |
| 2026-05-07 15:28 | 44.43651 | 0.44142 | 33959 ft | 451 kts | 335° |
| 2026-05-07 15:28 | 44.49520 | 0.41004 | 33958 ft | 452 kts | 335° |
| 2026-05-07 15:29 | 44.54397 | 0.38392 | 33959 ft | 451 kts | 335° |
| 2026-05-07 15:29 | 44.60260 | 0.35259 | 33964 ft | 451 kts | 335° |
| 2026-05-07 15:30 | 44.66114 | 0.32111 | 33959 ft | 450 kts | 335° |
| 2026-05-07 15:30 | 44.71955 | 0.28937 | 33963 ft | 450 kts | 335° |
| 2026-05-07 15:31 | 44.77798 | 0.25787 | 33958 ft | 450 kts | 335° |
| 2026-05-07 15:31 | 44.83632 | 0.22600 | 33962 ft | 449 kts | 335° |
| 2026-05-07 15:32 | 44.89453 | 0.19417 | 33958 ft | 449 kts | 335° |
| 2026-05-07 15:32 | 44.95283 | 0.16249 | 33955 ft | 448 kts | 335° |
| 2026-05-07 15:33 | 45.01094 | 0.13061 | 33951 ft | 448 kts | 335° |
| 2026-05-07 15:33 | 45.06915 | 0.09903 | 33966 ft | 448 kts | 335° |
| 2026-05-07 15:34 | 45.12721 | 0.06725 | 33952 ft | 447 kts | 334° |
| 2026-05-07 15:34 | 45.18522 | 0.03551 | 33954 ft | 447 kts | 335° |
| 2026-05-07 15:35 | 45.24313 | 0.00368 | 33962 ft | 446 kts | 335° |
| 2026-05-07 15:35 | 45.30131 | -0.02816 | 33953 ft | 451 kts | 335° |
| 2026-05-07 15:36 | 45.36031 | -0.06071 | 33957 ft | 457 kts | 335° |
| 2026-05-07 15:36 | 45.41977 | -0.09327 | 33961 ft | 457 kts | 335° |
| 2026-05-07 15:37 | 45.47907 | -0.12617 | 33960 ft | 457 kts | 335° |
| 2026-05-07 15:37 | 45.53834 | -0.15926 | 33967 ft | 457 kts | 335° |
| 2026-05-07 15:38 | 45.59762 | -0.19216 | 33955 ft | 457 kts | 335° |
| 2026-05-07 15:38 | 45.65662 | -0.22488 | 33962 ft | 457 kts | 335° |
| 2026-05-07 15:39 | 45.71567 | -0.25792 | 33962 ft | 456 kts | 335° |
| 2026-05-07 15:39 | 45.77473 | -0.29102 | 33965 ft | 456 kts | 335° |
| 2026-05-07 15:40 | 45.83363 | -0.32437 | 33958 ft | 456 kts | 334° |
| 2026-05-07 15:40 | 45.89267 | -0.35793 | 33957 ft | 455 kts | 335° |
| 2026-05-07 15:41 | 45.95168 | -0.39114 | 33970 ft | 455 kts | 334° |
| 2026-05-07 15:41 | 46.01056 | -0.42459 | 33968 ft | 455 kts | 334° |
| 2026-05-07 15:42 | 46.06930 | -0.45768 | 33974 ft | 451 kts | 337° |
| 2026-05-07 15:42 | 46.09991 | -0.46838 | 33963 ft | 456 kts | 350° |
| 2026-05-07 15:42 | 46.13156 | -0.47232 | 33970 ft | 457 kts | 353° |
| 2026-05-07 15:43 | 46.19507 | -0.47816 | 33972 ft | 457 kts | 353° |
| 2026-05-07 15:43 | 46.25848 | -0.48478 | 33965 ft | 457 kts | 353° |
| 2026-05-07 15:44 | 46.32177 | -0.49182 | 33967 ft | 456 kts | 353° |
| 2026-05-07 15:44 | 46.38517 | -0.49881 | 33967 ft | 457 kts | 353° |
| 2026-05-07 15:45 | 46.44849 | -0.50586 | 33959 ft | 456 kts | 353° |
| 2026-05-07 15:45 | 46.51174 | -0.51300 | 33969 ft | 456 kts | 353° |
| 2026-05-07 15:46 | 46.60651 | -0.52393 | 33975 ft | 455 kts | 353° |
| 2026-05-07 15:47 | 46.66965 | -0.53114 | 33979 ft | 455 kts | 353° |
| 2026-05-07 15:47 | 46.73259 | -0.53832 | 33979 ft | 455 kts | 353° |
| 2026-05-07 15:48 | 46.79543 | -0.54551 | 33981 ft | 455 kts | 353° |
| 2026-05-07 15:48 | 46.85849 | -0.55275 | 33986 ft | 454 kts | 353° |
| 2026-05-07 15:49 | 46.92145 | -0.56006 | 33987 ft | 454 kts | 353° |
| 2026-05-07 15:49 | 46.98450 | -0.56733 | 33985 ft | 454 kts | 353° |
| 2026-05-07 15:50 | 47.04748 | -0.57464 | 33983 ft | 453 kts | 353° |
| 2026-05-07 15:50 | 47.11036 | -0.58193 | 33979 ft | 453 kts | 353° |
| 2026-05-07 15:51 | 47.17319 | -0.58928 | 33976 ft | 453 kts | 353° |
| 2026-05-07 15:51 | 47.23603 | -0.59665 | 33987 ft | 453 kts | 353° |
| 2026-05-07 15:52 | 47.29881 | -0.60393 | 33987 ft | 452 kts | 353° |
| 2026-05-07 15:52 | 47.36159 | -0.61125 | 33991 ft | 452 kts | 353° |
| 2026-05-07 15:53 | 47.42431 | -0.61868 | 33991 ft | 452 kts | 353° |
| 2026-05-07 15:53 | 47.48691 | -0.62613 | 33993 ft | 451 kts | 353° |
| 2026-05-07 15:54 | 47.54924 | -0.63367 | 33992 ft | 451 kts | 353° |
| 2026-05-07 15:54 | 47.61207 | -0.64115 | 34000 ft | 451 kts | 353° |
| 2026-05-07 15:55 | 47.67462 | -0.64861 | 34004 ft | 450 kts | 353° |
| 2026-05-07 15:55 | 47.73711 | -0.65599 | 33998 ft | 450 kts | 353° |
| 2026-05-07 15:56 | 47.79960 | -0.66331 | 34000 ft | 450 kts | 353° |
| 2026-05-07 15:56 | 47.86172 | -0.67080 | 34000 ft | 450 kts | 353° |
| 2026-05-07 15:57 | 47.92415 | -0.67840 | 33998 ft | 450 kts | 353° |
| 2026-05-07 15:57 | 47.98661 | -0.68595 | 33991 ft | 450 kts | 353° |
| 2026-05-07 15:58 | 48.04927 | -0.69340 | 33993 ft | 446 kts | 353° |
| 2026-05-07 15:58 | 48.11067 | -0.70077 | 33992 ft | 446 kts | 353° |
| 2026-05-07 15:59 | 48.17242 | -0.70829 | 33990 ft | 446 kts | 353° |
| 2026-05-07 15:59 | 48.23427 | -0.71584 | 33999 ft | 446 kts | 353° |
| 2026-05-07 16:00 | 48.29602 | -0.72340 | 33999 ft | 446 kts | 353° |
| 2026-05-07 16:00 | 48.35776 | -0.73085 | 33999 ft | 445 kts | 353° |
| 2026-05-07 16:01 | 48.41947 | -0.73844 | 34000 ft | 445 kts | 353° |
| 2026-05-07 16:01 | 48.48130 | -0.74607 | 34001 ft | 445 kts | 353° |
| 2026-05-07 16:02 | 48.54306 | -0.75363 | 34001 ft | 445 kts | 353° |
| 2026-05-07 16:02 | 48.60475 | -0.76124 | 34003 ft | 445 kts | 353° |
| 2026-05-07 16:03 | 48.66649 | -0.76876 | 34009 ft | 445 kts | 353° |
| 2026-05-07 16:03 | 48.72819 | -0.77631 | 34005 ft | 445 kts | 353° |
| 2026-05-07 16:04 | 48.78999 | -0.78387 | 34003 ft | 445 kts | 353° |
| 2026-05-07 16:04 | 48.85176 | -0.79165 | 34012 ft | 445 kts | 353° |
| 2026-05-07 16:05 | 48.91344 | -0.79947 | 34021 ft | 445 kts | 353° |
| 2026-05-07 16:05 | 48.97479 | -0.80708 | 34021 ft | 445 kts | 353° |
| 2026-05-07 16:06 | 49.03652 | -0.81466 | 34017 ft | 445 kts | 353° |
| 2026-05-07 16:06 | 49.09798 | -0.82263 | 34017 ft | 445 kts | 353° |
| 2026-05-07 16:07 | 49.15979 | -0.83051 | 34018 ft | 445 kts | 353° |
| 2026-05-07 16:07 | 49.22166 | -0.83825 | 34028 ft | 445 kts | 353° |
| 2026-05-07 16:08 | 49.28341 | -0.84600 | 34019 ft | 445 kts | 353° |
| 2026-05-07 16:08 | 49.34511 | -0.85378 | 34032 ft | 445 kts | 353° |
| 2026-05-07 16:09 | 49.40689 | -0.86149 | 34036 ft | 445 kts | 353° |
| 2026-05-07 16:09 | 49.46857 | -0.86931 | 34020 ft | 445 kts | 353° |
| 2026-05-07 16:10 | 49.53016 | -0.87726 | 34030 ft | 444 kts | 353° |
| 2026-05-07 16:10 | 49.59174 | -0.88526 | 34023 ft | 443 kts | 353° |
| 2026-05-07 16:11 | 49.64923 | -0.89265 | 34015 ft | 443 kts | 353° |
| 2026-05-07 16:11 | 49.71139 | -0.90065 | 34021 ft | 441 kts | 353° |
| 2026-05-07 16:12 | 49.77275 | -0.90455 | 34025 ft | 443 kts | 2° |
| 2026-05-07 16:12 | 49.83422 | -0.89585 | 34030 ft | 444 kts | 3° |
| 2026-05-07 16:13 | 49.89560 | -0.88705 | 34032 ft | 443 kts | 3° |
| 2026-05-07 16:13 | 49.95708 | -0.87835 | 34023 ft | 443 kts | 3° |
| 2026-05-07 16:13 | 49.98718 | -0.87395 | 33720 ft | 443 kts | 3° |
| 2026-05-07 16:14 | 50.01809 | -0.86946 | 33442 ft | 446 kts | 3° |
| 2026-05-07 16:14 | 50.04906 | -0.86502 | 33184 ft | 447 kts | 3° |
| 2026-05-07 16:14 | 50.07993 | -0.86066 | 32864 ft | 446 kts | 3° |
| 2026-05-07 16:14 | 50.11078 | -0.85635 | 32363 ft | 443 kts | 3° |
| 2026-05-07 16:15 | 50.14138 | -0.85209 | 31792 ft | 441 kts | 3° |
| 2026-05-07 16:15 | 50.17182 | -0.84780 | 31200 ft | 439 kts | 3° |
| 2026-05-07 16:15 | 50.20219 | -0.84346 | 30622 ft | 437 kts | 4° |
| 2026-05-07 16:15 | 50.22258 | -0.84053 | 30249 ft | 435 kts | 4° |
| 2026-05-07 16:16 | 50.26238 | -0.83484 | 29479 ft | 432 kts | 4° |
| 2026-05-07 16:16 | 50.29220 | -0.83055 | 28899 ft | 430 kts | 4° |
| 2026-05-07 16:16 | 50.32190 | -0.82630 | 28324 ft | 428 kts | 4° |
| 2026-05-07 16:16 | 50.35148 | -0.82202 | 27770 ft | 425 kts | 4° |
| 2026-05-07 16:17 | 50.38088 | -0.81776 | 27219 ft | 423 kts | 4° |
| 2026-05-07 16:17 | 50.40065 | -0.81490 | 26832 ft | 421 kts | 4° |
| 2026-05-07 16:17 | 50.42971 | -0.81067 | 26261 ft | 419 kts | 4° |
| 2026-05-07 16:17 | 50.45819 | -0.80656 | 25721 ft | 417 kts | 4° |
| 2026-05-07 16:18 | 50.48753 | -0.80233 | 25173 ft | 414 kts | 4° |
| 2026-05-07 16:18 | 50.51552 | -0.79826 | 24638 ft | 412 kts | 4° |
| 2026-05-07 16:18 | 50.54422 | -0.79411 | 24088 ft | 410 kts | 4° |
| 2026-05-07 16:18 | 50.57293 | -0.78994 | 23526 ft | 408 kts | 4° |
| 2026-05-07 16:19 | 50.60111 | -0.78584 | 22993 ft | 406 kts | 4° |
| 2026-05-07 16:19 | 50.62912 | -0.78169 | 22462 ft | 403 kts | 4° |
| 2026-05-07 16:19 | 50.65691 | -0.77753 | 21914 ft | 401 kts | 4° |
| 2026-05-07 16:19 | 50.68425 | -0.77291 | 21406 ft | 398 kts | 8° |
| 2026-05-07 16:20 | 50.70183 | -0.76601 | 21158 ft | 392 kts | 17° |
| 2026-05-07 16:20 | 50.72690 | -0.75227 | 20886 ft | 382 kts | 19° |
| 2026-05-07 16:20 | 50.75168 | -0.73800 | 20609 ft | 377 kts | 19° |
| 2026-05-07 16:20 | 50.77617 | -0.72391 | 20347 ft | 375 kts | 19° |
| 2026-05-07 16:21 | 50.80070 | -0.70992 | 20091 ft | 373 kts | 19° |
| 2026-05-07 16:21 | 50.82282 | -0.69747 | 19860 ft | 372 kts | 18° |
| 2026-05-07 16:21 | 50.84610 | -0.68444 | 19606 ft | 371 kts | 18° |
| 2026-05-07 16:21 | 50.87053 | -0.67164 | 19209 ft | 369 kts | 12° |
| 2026-05-07 16:22 | 50.89599 | -0.66741 | 18340 ft | 371 kts | 359° |
| 2026-05-07 16:22 | 50.92194 | -0.66731 | 17458 ft | 375 kts | 358° |
| 2026-05-07 16:22 | 50.94802 | -0.66758 | 16877 ft | 373 kts | 358° |
| 2026-05-07 16:22 | 50.97379 | -0.66761 | 16385 ft | 369 kts | 359° |
| 2026-05-07 16:23 | 50.99931 | -0.66745 | 15958 ft | 363 kts | 359° |
| 2026-05-07 16:23 | 51.02440 | -0.66724 | 15545 ft | 358 kts | 359° |
| 2026-05-07 16:23 | 51.04912 | -0.66692 | 15129 ft | 353 kts | 359° |
| 2026-05-07 16:23 | 51.07340 | -0.66661 | 14719 ft | 348 kts | 359° |
| 2026-05-07 16:24 | 51.09724 | -0.66626 | 14296 ft | 343 kts | 360° |
| 2026-05-07 16:24 | 51.11734 | -0.66599 | 13970 ft | 339 kts | 359° |
| 2026-05-07 16:24 | 51.14066 | -0.66567 | 13593 ft | 333 kts | 360° |
| 2026-05-07 16:24 | 51.16357 | -0.66534 | 13224 ft | 327 kts | 360° |
| 2026-05-07 16:25 | 51.18600 | -0.66501 | 12838 ft | 321 kts | 360° |
| 2026-05-07 16:25 | 51.20829 | -0.66470 | 12472 ft | 316 kts | 360° |
| 2026-05-07 16:25 | 51.23007 | -0.66442 | 12122 ft | 311 kts | 360° |
| 2026-05-07 16:25 | 51.25153 | -0.66413 | 11783 ft | 306 kts | 0° |
| 2026-05-07 16:26 | 51.26776 | -0.66387 | 11525 ft | 302 kts | 0° |
| 2026-05-07 16:26 | 51.28865 | -0.66355 | 11185 ft | 300 kts | 0° |
| 2026-05-07 16:26 | 51.30940 | -0.66325 | 10857 ft | 298 kts | 360° |
| 2026-05-07 16:26 | 51.33009 | -0.66295 | 10542 ft | 296 kts | 360° |
| 2026-05-07 16:27 | 51.35055 | -0.66262 | 10231 ft | 294 kts | 360° |
| 2026-05-07 16:27 | 51.37095 | -0.66233 | 9912 ft | 292 kts | 360° |
| 2026-05-07 16:27 | 51.39122 | -0.66204 | 9597 ft | 290 kts | 360° |
| 2026-05-07 16:27 | 51.41131 | -0.66175 | 9305 ft | 288 kts | 360° |
| 2026-05-07 16:28 | 51.43128 | -0.66142 | 9002 ft | 286 kts | 360° |
| 2026-05-07 16:28 | 51.45072 | -0.66113 | 8696 ft | 284 kts | 359° |
| 2026-05-07 16:28 | 51.47060 | -0.66084 | 8392 ft | 283 kts | 359° |
| 2026-05-07 16:28 | 51.49024 | -0.66054 | 8093 ft | 282 kts | 359° |
| 2026-05-07 16:29 | 51.50978 | -0.66026 | 7789 ft | 280 kts | 360° |
| 2026-05-07 16:29 | 51.52914 | -0.65999 | 7494 ft | 276 kts | 360° |
| 2026-05-07 16:29 | 51.54802 | -0.65973 | 7201 ft | 270 kts | 360° |
| 2026-05-07 16:29 | 51.56662 | -0.65941 | 6905 ft | 265 kts | 360° |
| 2026-05-07 16:30 | 51.58490 | -0.65911 | 6622 ft | 259 kts | 360° |
| 2026-05-07 16:30 | 51.60273 | -0.65885 | 6351 ft | 253 kts | 360° |
| 2026-05-07 16:30 | 51.61185 | -0.65873 | 6212 ft | 251 kts | 360° |
| 2026-05-07 16:30 | 51.62949 | -0.65846 | 5946 ft | 249 kts | 0° |
| 2026-05-07 16:31 | 51.64657 | -0.65819 | 5703 ft | 242 kts | 0° |
| 2026-05-07 16:31 | 51.66316 | -0.65794 | 5454 ft | 238 kts | 0° |
| 2026-05-07 16:31 | 51.67975 | -0.65771 | 5219 ft | 237 kts | 0° |
| 2026-05-07 16:31 | 51.69629 | -0.65745 | 4990 ft | 237 kts | 0° |
| 2026-05-07 16:32 | 51.71272 | -0.65712 | 4767 ft | 236 kts | 3° |
| 2026-05-07 16:32 | 51.72845 | -0.65028 | 4522 ft | 235 kts | 26° |
| 2026-05-07 16:32 | 51.74272 | -0.63767 | 4308 ft | 234 kts | 30° |
| 2026-05-07 16:32 | 51.75657 | -0.62463 | 4082 ft | 226 kts | 31° |
| 2026-05-07 16:33 | 51.76987 | -0.61208 | 3838 ft | 218 kts | 31° |
| 2026-05-07 16:33 | 51.78248 | -0.60022 | 3677 ft | 211 kts | 31° |
| 2026-05-07 16:33 | 51.79514 | -0.58831 | 3532 ft | 210 kts | 31° |
| 2026-05-07 16:33 | 51.80745 | -0.57675 | 3302 ft | 200 kts | 31° |
| 2026-05-07 16:34 | 51.81923 | -0.56575 | 3045 ft | 193 kts | 31° |
| 2026-05-07 16:34 | 51.83064 | -0.55516 | 2818 ft | 185 kts | 31° |
| 2026-05-07 16:34 | 51.84087 | -0.54325 | 2568 ft | 179 kts | 48° |
| 2026-05-07 16:34 | 51.84704 | -0.52644 | 2373 ft | 172 kts | 68° |
| 2026-05-07 16:35 | 51.85057 | -0.50818 | 2149 ft | 170 kts | 77° |
| 2026-05-07 16:35 | 51.85354 | -0.49058 | 1891 ft | 155 kts | 76° |
| 2026-05-07 16:35 | 51.85623 | -0.47494 | 1673 ft | 137 kts | 76° |
| 2026-05-07 16:35 | 51.85883 | -0.45991 | 1490 ft | 137 kts | 75° |
| 2026-05-07 16:36 | 51.86136 | -0.44526 | 1331 ft | 137 kts | 75° |
| 2026-05-07 16:36 | 51.86392 | -0.43043 | 1151 ft | 136 kts | 75° |
| 2026-05-07 16:36 | 51.86648 | -0.41560 | 966 ft | 136 kts | 75° |
| 2026-05-07 16:36 | 51.86902 | -0.40082 | 789 ft | 136 kts | 75° |
| 2026-05-07 16:37 | 51.87143 | -0.38684 | 595 ft | 136 kts | 73° |
| 2026-05-07 16:37 | 51.87387 | -0.37256 | 527 ft | 118 kts | 74° |
| 2026-05-07 16:37 | 51.87540 | -0.36414 | 527 ft | 64 kts | 74° |
| 2026-05-07 16:37 | 51.87611 | -0.35993 | 521 ft | 21 kts | 70° |
| 2026-05-07 16:38 | 51.87672 | -0.35925 | 522 ft | 11 kts | 356° |
| 2026-05-07 16:38 | 51.87742 | -0.35953 | 521 ft | 9 kts | 331° |
| 2026-05-07 16:38 | 51.87782 | -0.36042 | 523 ft | 11 kts | 278° |
| 2026-05-07 16:38 | 51.87766 | -0.36179 | 524 ft | 13 kts | 253° |
| 2026-05-07 16:39 | 51.87739 | -0.36330 | 523 ft | 15 kts | 253° |
| 2026-05-07 16:39 | 51.87713 | -0.36503 | 525 ft | 17 kts | 255° |
| 2026-05-07 16:39 | 51.87682 | -0.36673 | 527 ft | 16 kts | 253° |
| 2026-05-07 16:39 | 51.87650 | -0.36844 | 530 ft | 12 kts | 253° |
| 2026-05-07 16:40 | 51.87660 | -0.36929 | 530 ft | 13 kts | 313° |
| 2026-05-07 16:40 | 51.87756 | -0.36993 | 523 ft | 13 kts | 343° |
| 2026-05-07 16:40 | 51.87844 | -0.37040 | 517 ft | 14 kts | 341° |
| 2026-05-07 16:40 | 51.87938 | -0.37090 | 514 ft | 15 kts | 342° |
| 2026-05-07 16:41 | 51.88038 | -0.37143 | 514 ft | 16 kts | 342° |
| 2026-05-07 16:41 | 51.88146 | -0.37199 | 519 ft | 17 kts | 342° |
| 2026-05-07 16:41 | 51.88213 | -0.37239 | 522 ft | 7 kts | 328° |
| 2026-05-07 16:41 | 51.88232 | -0.37309 | 522 ft | 8 kts | 263° |
| 2026-05-07 16:42 | 51.88218 | -0.37377 | 522 ft | 4 kts | 220° |
| 2026-05-07 16:42 | 51.88188 | -0.37384 | 522 ft | 4 kts | 169° |
| 2026-05-07 16:42 | 51.88174 | -0.37377 | 522 ft | 0 kts | 162° |
| 2026-05-07 16:43 | 51.88173 | -0.37376 | 522 ft | 1 kts | 162° |
| 2026-05-07 16:43 | 51.88166 | -0.37373 | 522 ft | 0 kts | 163° |